| time (UTC) | temp F | wind direction | speed knots | gust knots | rain 1hr in | rain 24hr in | rain mn in | humidity % | barometer mb |
| 20260503185356 | 64 | 218 | 14.8 | 17.4 | 0.03 | 0.08 | 0.08 | 50 | 976.2 |
| 20260503184356 | 63 | 219 | 13.9 | 18.2 | 0.03 | 0.08 | 0.08 | 50 | 976.2 |
| 20260503181956 | 62 | 215 | 13.0 | 19.1 | 0.06 | 0.07 | 0.07 | 51 | 976.5 |
| 20260503180055 | 61 | 223 | 12.2 | 15.6 | 0.05 | 0.06 | 0.06 | 53 | 976.8 |
| 20260503175755 | 61 | 230 | 13.0 | 16.5 | 0.05 | 0.06 | 0.06 | 53 | 977.1 |
| 20260503175256 | 60 | 223 | 13.9 | 17.4 | 0.05 | 0.06 | 0.06 | 54 | 976.9 |
| 20260503174256 | 60 | 218 | 15.6 | 20.0 | 0.04 | 0.04 | 0.04 | 54 | 977.2 |
| 20260503172556 | 59 | 219 | 14.8 | 20.9 | 0.01 | 0.02 | 0.02 | 54 | 977.5 |
| 20260503171556 | 58 | 224 | 13.0 | 15.6 | 0.01 | 0.01 | 0.01 | 56 | 977.7 |
| 20260503170556 | 57 | 226 | 11.3 | 14.8 | 0.00 | 0.01 | 0.01 | 60 | 978.0 |
| 20260503081043 | 46 | 239 | 5.2 | 7.8 | 0.00 | 0.00 | 0.00 | 61 | 981.0 |
| 20260503072042 | 46 | 250 | 6.1 | 7.8 | 0.00 | 0.00 | 0.00 | 62 | 981.3 |
| 20260503071042 | 46 | 229 | 5.2 | 7.0 | 0.00 | 0.00 | 0.00 | 61 | 981.3 |
| 20260503055042 | 44 | 250 | 3.5 | 4.3 | 0.00 | 0.00 | 0.00 | 63 | 982.0 |
| 20260503054042 | 45 | 247 | 3.5 | 5.2 | 0.00 | 0.00 | 0.00 | 63 | 982.1 |
| 20260503053044 | 45 | 240 | 4.3 | 6.1 | 0.00 | 0.00 | 0.00 | 63 | 982.2 |
| 20260503052043 | 44 | 232 | 4.3 | 5.2 | 0.00 | 0.00 | 0.00 | 64 | 982.2 |
| 20260503051042 | 44 | 246 | 4.3 | 6.1 | 0.00 | 0.00 | 0.00 | 65 | 982.4 |
| 20260503050043 | 45 | 238 | 4.3 | 7.0 | 0.00 | 0.00 | 0.00 | 63 | 982.4 |
| 20260503045042 | 45 | 235 | 6.1 | 7.8 | 0.00 | 0.00 | 0.00 | 62 | 982.4 |
| 20260503044042 | 45 | 245 | 4.3 | 6.1 | 0.00 | 0.00 | 0.00 | 63 | 982.5 |
| 20260503043042 | 44 | 246 | 4.3 | 6.1 | 0.00 | 0.00 | 0.00 | 65 | 982.5 |
| 20260503042042 | 43 | 243 | 4.3 | 6.1 | 0.00 | 0.00 | 0.00 | 69 | 982.6 |
| 20260503041043 | 42 | 228 | 2.6 | 3.5 | 0.00 | 0.00 | 0.00 | 73 | 982.7 |
| 20260503040043 | 42 | 216 | 2.6 | 4.3 | 0.00 | 0.00 | 0.00 | 74 | 982.8 |
| 20260503035042 | 42 | 224 | 3.5 | 6.1 | 0.00 | 0.00 | 0.00 | 74 | 982.9 |
| 20260503033053 | 0 | 218 | 4.3 | 0.0 | 0.00 | 0.00 | 0.00 | ||
| 20260503033042 | 42 | 218 | 4.3 | 6.1 | 0.00 | 0.00 | 0.00 | 72 | 983.0 |
| 20260503032042 | 41 | 220 | 4.3 | 5.2 | 0.00 | 0.00 | 0.00 | 74 | 983.2 |
| 20260503031042 | 40 | 213 | 2.6 | 3.5 | 0.00 | 0.00 | 0.00 | 77 | 983.2 |
| 20260503030042 | 40 | 208 | 2.6 | 3.5 | 0.00 | 0.00 | 0.00 | 76 | 983.4 |
| 20260503025042 | 40 | 228 | 2.6 | 3.5 | 0.00 | 0.00 | 0.00 | 78 | 983.5 |
| 20260503024042 | 40 | 228 | 1.7 | 2.6 | 0.00 | 0.00 | 0.00 | 79 | 983.5 |
| 20260503023042 | 41 | 217 | 1.7 | 2.6 | 0.00 | 0.00 | 0.00 | 77 | 983.5 |
| 20260503022042 | 42 | 199 | 0.9 | 1.7 | 0.00 | 0.00 | 0.00 | 76 | 983.6 |
| 20260503021041 | 42 | 156 | 0.9 | 1.7 | 0.00 | 0.00 | 0.00 | 76 | 983.6 |
| 20260503020042 | 42 | 156 | 1.7 | 2.6 | 0.00 | 0.00 | 0.00 | 76 | 983.6 |
| 20260503015041 | 42 | 184 | 2.6 | 4.3 | 0.00 | 0.00 | 0.00 | 77 | 983.5 |
| 20260503014042 | 42 | 145 | 1.7 | 3.5 | 0.00 | 0.00 | 0.00 | 75 | 983.5 |
| 20260503013043 | 43 | 146 | 1.7 | 2.6 | 0.00 | 0.00 | 0.00 | 74 | 983.4 |
| 20260503012041 | 43 | 188 | 1.7 | 3.5 | 0.00 | 0.00 | 0.00 | 73 | 983.4 |
| 20260503011041 | 44 | 116 | 1.7 | 1.7 | 0.00 | 0.00 | 0.00 | 72 | 983.4 |
| 20260503010041 | 44 | 137 | 2.6 | 3.5 | 0.00 | 0.00 | 0.00 | 71 | 983.4 |
| 20260503005042 | 44 | 150 | 0.9 | 2.6 | 0.00 | 0.00 | 0.00 | 71 | 983.5 |
| 20260503004042 | 45 | 151 | 1.7 | 3.5 | 0.00 | 0.00 | 0.00 | 69 | 983.5 |
| 20260503003042 | 46 | 169 | 2.6 | 3.5 | 0.00 | 0.00 | 0.00 | 68 | 983.6 |
| 20260503002042 | 46 | 178 | 3.5 | 5.2 | 0.00 | 0.00 | 0.00 | 66 | 983.6 |
| 20260503001041 | 47 | 165 | 4.3 | 7.0 | 0.00 | 0.00 | 0.00 | 63 | 983.6 |
| 20260503000041 | 48 | 184 | 1.7 | 2.6 | 0.00 | 0.00 | 0.00 | 62 | 983.7 |
| 20260502235041 | 48 | 154 | 2.6 | 4.3 | 0.00 | 0.00 | 0.00 | 61 | 983.8 |
| 20260502234041 | 47 | 167 | 4.3 | 6.1 | 0.00 | 0.00 | 0.00 | 61 | 983.8 |
| 20260502232041 | 48 | 95 | 5.2 | 7.8 | 0.00 | 0.00 | 0.00 | 64 | 984.1 |
| 20260502231043 | 49 | 131 | 3.5 | 5.2 | 0.00 | 0.00 | 0.00 | 57 | 984.2 |
| 20260502230041 | 49 | 118 | 4.3 | 5.2 | 0.00 | 0.00 | 0.00 | 55 | 984.2 |
| 20260502225041 | 48 | 126 | 2.6 | 2.6 | 0.00 | 0.00 | 0.00 | 57 | 984.4 |
| 20260502224041 | 49 | 155 | 2.6 | 5.2 | 0.00 | 0.00 | 0.00 | 54 | 984.4 |
| 20260502223041 | 49 | 142 | 2.6 | 4.3 | 0.00 | 0.00 | 0.00 | 54 | 984.5 |
| 20260502222041 | 49 | 151 | 5.2 | 7.0 | 0.00 | 0.00 | 0.00 | 53 | 984.6 |
| 20260502221042 | 49 | 170 | 4.3 | 7.0 | 0.00 | 0.00 | 0.00 | 52 | 984.7 |
| 20260502220041 | 49 | 131 | 2.6 | 5.2 | 0.00 | 0.00 | 0.00 | 55 | 984.8 |
| 20260502215041 | 50 | 168 | 3.5 | 6.1 | 0.00 | 0.00 | 0.00 | 51 | 984.8 |
| 20260502214041 | 49 | 134 | 2.6 | 5.2 | 0.00 | 0.00 | 0.00 | 55 | 984.9 |
| 20260502212041 | 49 | 144 | 3.5 | 5.2 | 0.00 | 0.00 | 0.00 | 54 | 985.1 |
| 20260502211041 | 50 | 124 | 3.5 | 6.1 | 0.00 | 0.00 | 0.00 | 52 | 985.0 |
| 20260502210041 | 49 | 151 | 3.5 | 5.2 | 0.00 | 0.00 | 0.00 | 53 | 985.1 |
| 20260502205041 | 50 | 121 | 5.2 | 7.8 | 0.00 | 0.00 | 0.00 | 51 | 985.2 |
| 20260502204041 | 49 | 121 | 4.3 | 8.7 | 0.00 | 0.00 | 0.00 | 54 | 985.4 |
| 20260502203041 | 47 | 137 | 2.6 | 4.3 | 0.00 | 0.00 | 0.00 | 55 | 985.7 |
| 20260502202041 | 48 | 159 | 4.3 | 6.1 | 0.00 | 0.00 | 0.00 | 52 | 985.8 |
| 20260502201041 | 50 | 113 | 3.5 | 6.1 | 0.00 | 0.00 | 0.00 | 52 | 985.8 |
| 20260502200041 | 49 | 170 | 5.2 | 8.7 | 0.00 | 0.00 | 0.00 | 52 | 986.0 |
| 20260502195041 | 49 | 151 | 4.3 | 7.0 | 0.00 | 0.00 | 0.00 | 52 | 986.2 |
| 20260502194041 | 48 | 132 | 6.1 | 7.8 | 0.00 | 0.00 | 0.00 | 52 | 986.4 |
| 20260502193041 | 48 | 80 | 5.2 | 7.0 | 0.00 | 0.00 | 0.00 | 53 | 986.5 |
| 20260502191041 | 47 | 93 | 3.5 | 5.2 | 0.00 | 0.00 | 0.00 | 53 | 986.6 |
| 20260502190041 | 48 | 132 | 4.3 | 7.0 | 0.00 | 0.00 | 0.00 | 52 | 986.7 |